Time;durP1;ratioP1;P1;durP2;ratioP2;P2;SDS_P1;SDS_P2;PMS_P1;PMS_P2;Temp;Humidity;BMP_temperature;BMP_pressure;BME280_temperature;BME280_humidity;BME280_pressure;Samples;Min_cycle;Max_cycle;Signal;HPM_P1;HPM_P2
2023/02/10 00:00:35;;;;;;;45.23;29.90;;;4.10;99.90;;;;;;5079608;28;20446;-79
2023/02/10 00:03:05;;;;;;;46.83;31.13;;;4.10;99.90;;;;;;5079925;28;20453;-85
2023/02/10 00:05:33;;;;;;;51.13;37.30;;;4.20;99.90;;;;;;5080025;28;20447;-84
2023/02/10 00:08:00;;;;;;;50.53;31.83;;;4.30;99.90;;;;;;5081084;28;20443;-83
2023/02/10 00:10:29;;;;;;;47.07;31.33;;;4.30;99.90;;;;;;5080002;28;20430;-82
2023/02/10 00:12:56;;;;;;;42.20;29.80;;;4.30;99.90;;;;;;5080796;28;21015;-82
2023/02/10 00:15:23;;;;;;;51.30;29.80;;;4.30;99.90;;;;;;5079166;28;20447;-81
2023/02/10 00:17:49;;;;;;;51.73;31.87;;;4.10;99.90;;;;;;5078086;28;20248;-79
2023/02/10 00:20:19;;;;;;;48.23;30.73;;;4.10;99.90;;;;;;5079590;28;20190;-79
2023/02/10 00:22:45;;;;;;;49.33;31.67;;;4.10;99.90;;;;;;5076883;28;20433;-79
2023/02/10 00:25:14;;;;;;;49.17;31.20;;;4.00;99.90;;;;;;5078877;28;20486;-80
2023/02/10 00:27:41;;;;;;;49.50;31.30;;;4.00;99.90;;;;;;5079594;28;20453;-78
2023/02/10 00:30:09;;;;;;;47.83;30.10;;;3.90;99.90;;;;;;5077953;28;20461;-78
2023/02/10 00:32:37;;;;;;;70.45;45.95;;;3.90;99.90;;;;;;5077057;28;20428;-79
2023/02/10 00:35:05;;;;;;;56.87;36.33;;;4.00;99.90;;;;;;5079789;28;20190;-78
2023/02/10 00:37:34;;;;;;;59.60;35.97;;;4.10;99.90;;;;;;5079363;28;20804;-80
2023/02/10 00:40:04;;;;;;;55.43;33.07;;;4.10;99.90;;;;;;5076708;28;20450;-79
2023/02/10 00:42:35;;;;;;;55.40;32.27;;;3.90;99.90;;;;;;5076657;28;20455;-81
2023/02/10 00:45:04;;;;;;;50.67;32.73;;;3.90;99.90;;;;;;5078350;28;20427;-79
2023/02/10 00:47:33;;;;;;;50.80;30.70;;;3.80;99.90;;;;;;5077806;28;20427;-81
2023/02/10 00:50:00;;;;;;;49.53;30.27;;;3.80;99.90;;;;;;5076349;28;20478;-78
2023/02/10 00:52:27;;;;;;;52.80;32.47;;;3.80;99.90;;;;;;5077198;28;20438;-78
2023/02/10 00:54:55;;;;;;;47.20;28.73;;;3.70;99.90;;;;;;5076230;28;20431;-79
2023/02/10 00:57:23;;;;;;;58.45;42.00;;;3.70;99.90;;;;;;5075185;28;20428;-79
2023/02/10 00:59:49;;;;;;;52.13;33.53;;;3.80;99.90;;;;;;5074531;28;20221;-79
2023/02/10 01:02:16;;;;;;;56.30;31.83;;;3.80;99.90;;;;;;5075911;28;20446;-78
2023/02/10 01:04:43;;;;;;;51.67;31.63;;;3.60;99.90;;;;;;5075521;28;20427;-79
2023/02/10 01:07:10;;;;;;;46.97;29.13;;;3.50;99.90;;;;;;5076269;28;20490;-80
2023/02/10 01:09:37;;;;;;;50.97;31.03;;;3.30;99.90;;;;;;5075217;28;20466;-81
2023/02/10 01:12:09;;;;;;;47.77;29.73;;;3.30;99.90;;;;;;5075012;28;20453;-80
2023/02/10 01:14:37;;;;;;;53.23;32.13;;;3.30;99.90;;;;;;5077161;28;20447;-79
2023/02/10 01:17:06;;;;;;;50.77;31.53;;;3.20;99.90;;;;;;5076244;28;20431;-79
2023/02/10 01:19:33;;;;;;;49.43;31.27;;;3.20;99.90;;;;;;5074281;28;20836;-78
2023/02/10 01:22:00;;;;;;;51.53;31.60;;;3.20;99.90;;;;;;5073888;28;20453;-79
2023/02/10 01:24:27;;;;;;;51.87;32.03;;;3.10;99.90;;;;;;5073682;28;20458;-80
2023/02/10 01:26:54;;;;;;;46.77;30.40;;;3.10;99.90;;;;;;5073372;28;20846;-80
2023/02/10 01:29:23;;;;;;;53.93;30.27;;;3.00;99.90;;;;;;5073287;28;20442;-79
2023/02/10 01:31:51;;;;;;;47.60;31.27;;;3.00;99.90;;;;;;5073124;28;20449;-80
2023/02/10 01:34:18;;;;;;;52.37;30.93;;;2.90;99.90;;;;;;5075962;28;20438;-78
2023/02/10 01:36:46;;;;;;;48.53;30.10;;;2.80;99.90;;;;;;5077096;28;20430;-78
2023/02/10 01:39:13;;;;;;;46.90;30.27;;;2.80;99.90;;;;;;5075889;28;20458;-79
2023/02/10 01:41:39;;;;;;;49.80;30.17;;;2.70;99.90;;;;;;5076271;28;20450;-79
2023/02/10 01:44:45;;;;;;;49.80;30.77;;;2.70;99.90;;;;;;5076707;28;20442;-80
2023/02/10 01:47:15;;;;;;;45.60;31.17;;;2.70;99.90;;;;;;5076400;28;20489;-79
2023/02/10 01:49:47;;;;;;;63.90;44.33;;;2.70;99.90;;;;;;5075391;28;20586;-79
2023/02/10 01:52:17;;;;;;;55.80;34.60;;;2.70;99.90;;;;;;5076545;28;20435;-82
2023/02/10 01:54:48;;;;;;;51.23;33.13;;;2.70;99.90;;;;;;5076411;28;20766;-78
2023/02/10 01:57:15;;;;;;;52.00;31.53;;;2.70;99.90;;;;;;5076472;28;20450;-79
2023/02/10 01:59:43;;;;;;;47.80;31.73;;;2.70;99.90;;;;;;5076535;28;20438;-79
2023/02/10 02:02:12;;;;;;;51.67;31.13;;;2.70;99.90;;;;;;5076472;28;20450;-84
2023/02/10 02:04:47;;;;;;;47.47;31.20;;;2.50;99.90;;;;;;5076640;28;20435;-80
2023/02/10 02:07:14;;;;;;;52.90;30.60;;;2.40;99.90;;;;;;5075637;28;20848;-83
2023/02/10 02:09:41;;;;;;;49.30;33.23;;;2.40;99.90;;;;;;5075973;28;20459;-84
2023/02/10 02:12:17;;;;;;;50.87;33.03;;;2.30;99.90;;;;;;5075955;28;20537;-84
2023/02/10 02:14:51;;;;;;;50.33;30.60;;;2.30;99.90;;;;;;5075836;28;20437;-82
2023/02/10 02:17:27;;;;;;;67.85;48.33;;;2.40;99.90;;;;;;5074279;28;20428;-82
2023/02/10 02:20:41;;;;;;;58.80;37.33;;;2.50;99.90;;;;;;5074158;28;20564;-82
2023/02/10 02:23:35;;;;;;;56.13;34.00;;;2.50;99.90;;;;;;5075574;28;20541;-82
2023/02/10 02:26:22;;;;;;;56.60;34.57;;;2.40;99.90;;;;;;5068663;28;20479;-81
2023/02/10 02:29:06;;;;;;;51.13;32.50;;;2.40;99.90;;;;;;5075338;28;20534;-82
2023/02/10 02:31:47;;;;;;;55.90;32.63;;;2.40;99.90;;;;;;5075086;28;20821;-81
2023/02/10 02:34:18;;;;;;;58.50;33.60;;;2.50;99.90;;;;;;5075574;28;20517;-82
2023/02/10 02:36:52;;;;;;;61.30;35.03;;;2.40;99.90;;;;;;5075242;28;20514;-79
2023/02/10 02:39:19;;;;;;;58.43;34.33;;;2.40;99.90;;;;;;5075610;28;20450;-80
2023/02/10 02:41:45;;;;;;;64.00;34.57;;;2.40;99.90;;;;;;5074989;28;20457;-82
2023/02/10 02:44:12;;;;;;;64.07;36.67;;;2.60;99.90;;;;;;5075390;28;20442;-83
2023/02/10 02:46:53;;;;;;;66.20;36.43;;;2.50;99.90;;;;;;5075295;28;20492;-83
2023/02/10 02:49:30;;;;;;;65.70;36.73;;;2.60;99.90;;;;;;5075353;28;20438;-83
2023/02/10 02:52:03;;;;;;;67.13;35.87;;;2.60;99.90;;;;;;5075614;28;20437;-82
2023/02/10 02:54:35;;;;;;;63.60;36.03;;;2.60;99.90;;;;;;5075964;28;20438;-81
2023/02/10 02:57:10;;;;;;;61.17;36.50;;;2.50;99.90;;;;;;5073789;28;20986;-80
2023/02/10 02:59:41;;;;;;;66.20;36.77;;;2.50;99.90;;;;;;5075178;28;20811;-82
2023/02/10 03:02:12;;;;;;;65.50;36.00;;;2.40;99.90;;;;;;5075193;28;20435;-79
2023/02/10 03:04:40;;;;;;;70.90;36.87;;;2.40;99.90;;;;;;5074606;28;20442;-80
2023/02/10 03:07:08;;;;;;;62.60;35.70;;;2.40;99.90;;;;;;5074374;28;21019;-79
2023/02/10 03:09:36;;;;;;;68.63;35.53;;;2.50;99.90;;;;;;5074652;28;20447;-80
2023/02/10 03:12:03;;;;;;;60.83;35.93;;;2.50;99.90;;;;;;5074494;28;20438;-80
2023/02/10 03:14:30;;;;;;;67.50;36.30;;;2.50;99.90;;;;;;5074228;28;20451;-80
2023/02/10 03:16:56;;;;;;;65.93;37.43;;;2.50;99.90;;;;;;5074246;28;20908;-81
2023/02/10 03:19:25;;;;;;;68.07;36.50;;;2.40;99.90;;;;;;5074038;28;20471;-80
2023/02/10 03:21:51;;;;;;;63.40;35.57;;;2.40;99.90;;;;;;5074035;28;20977;-81
2023/02/10 03:24:18;;;;;;;63.07;35.50;;;2.30;99.90;;;;;;5073550;28;20451;-81
2023/02/10 03:26:45;;;;;;;66.00;36.70;;;2.30;99.90;;;;;;5073728;28;20498;-83
2023/02/10 03:29:13;;;;;;;69.23;37.07;;;2.30;99.90;;;;;;5074244;28;20446;-83
2023/02/10 03:31:40;;;;;;;77.07;36.50;;;2.30;99.90;;;;;;5073655;28;20442;-84
2023/02/10 03:34:07;;;;;;;79.40;38.70;;;2.40;99.90;;;;;;5073245;28;20434;-83
2023/02/10 03:36:35;;;;;;;83.10;41.07;;;2.50;99.90;;;;;;5073863;28;20918;-80
2023/02/10 03:39:04;;;;;;;78.93;41.10;;;2.50;99.90;;;;;;5074123;28;20458;-80
2023/02/10 03:41:30;;;;;;;72.50;39.83;;;2.50;99.90;;;;;;5074435;28;20451;-82
2023/02/10 03:43:57;;;;;;;75.57;37.50;;;2.50;99.90;;;;;;5074114;28;20779;-83
2023/02/10 03:46:24;;;;;;;72.63;38.57;;;2.50;99.90;;;;;;5074061;28;20487;-81
2023/02/10 03:48:51;;;;;;;80.67;39.10;;;2.50;99.90;;;;;;5073935;28;20561;-80
2023/02/10 03:51:18;;;;;;;77.40;40.23;;;2.50;99.90;;;;;;5074198;28;20890;-80
2023/02/10 03:53:46;;;;;;;83.27;40.90;;;2.50;99.90;;;;;;5074184;28;20450;-81
2023/02/10 03:56:13;;;;;;;81.67;41.80;;;2.60;99.90;;;;;;5081630;28;20461;-81
2023/02/10 03:58:39;;;;;;;78.63;39.87;;;2.60;99.90;;;;;;5081205;28;20829;-81
2023/02/10 04:01:11;;;;;;;75.63;40.97;;;2.60;99.90;;;;;;5094382;28;20434;-79
2023/02/10 04:03:38;;;;;;;83.70;40.27;;;2.60;99.90;;;;;;5093517;28;20465;-78
2023/02/10 04:06:06;;;;;;;78.47;38.87;;;2.60;99.90;;;;;;5094136;28;20449;-80
2023/02/10 04:08:33;;;;;;;76.57;40.10;;;2.60;99.90;;;;;;5093671;28;20453;-80
2023/02/10 04:11:02;;;;;;;75.37;39.00;;;2.60;99.90;;;;;;5093204;28;20446;-80
2023/02/10 04:13:29;;;;;;;69.33;37.70;;;2.50;99.90;;;;;;5094271;28;20454;-78
2023/02/10 04:16:03;;;;;;;72.60;37.13;;;2.40;99.90;;;;;;5094592;28;20442;-82
2023/02/10 04:18:30;;;;;;;66.10;35.60;;;2.40;99.90;;;;;;5092867;28;20453;-80
2023/02/10 04:21:00;;;;;;;65.43;36.27;;;2.30;99.90;;;;;;5093509;28;20553;-81
2023/02/10 04:23:27;;;;;;;74.07;37.17;;;2.20;99.90;;;;;;5093232;28;20925;-79
2023/02/10 04:25:55;;;;;;;64.40;35.03;;;2.20;99.90;;;;;;5093348;28;20932;-79
2023/02/10 04:28:23;;;;;;;70.70;36.27;;;2.10;99.90;;;;;;5093451;28;20492;-82
2023/02/10 04:30:51;;;;;;;71.10;36.17;;;2.10;99.90;;;;;;5093639;28;20464;-81
2023/02/10 04:33:18;;;;;;;74.17;38.27;;;2.00;99.90;;;;;;5093206;28;20438;-83
2023/02/10 04:35:47;;;;;;;79.57;39.63;;;2.10;99.90;;;;;;5093724;28;20797;-80
2023/02/10 04:38:14;;;;;;;78.40;39.97;;;2.10;99.90;;;;;;5093128;28;20450;-83
2023/02/10 04:40:42;;;;;;;83.70;40.43;;;2.10;99.90;;;;;;5093368;28;20458;-85
2023/02/10 04:43:08;;;;;;;78.20;41.10;;;2.10;99.90;;;;;;5093322;28;20541;-83
2023/02/10 04:45:37;;;;;;;77.57;40.67;;;2.20;99.90;;;;;;5093607;28;20445;-82
2023/02/10 04:48:04;;;;;;;79.73;41.93;;;2.30;99.90;;;;;;5092880;28;21000;-82
2023/02/10 04:50:30;;;;;;;75.47;40.27;;;2.40;99.90;;;;;;5093351;28;20452;-81
2023/02/10 04:52:59;;;;;;;75.67;41.37;;;2.40;99.90;;;;;;5093215;28;20446;-84
2023/02/10 04:55:26;;;;;;;72.00;38.70;;;2.50;99.90;;;;;;5093567;28;20448;-83
2023/02/10 04:57:54;;;;;;;70.43;38.00;;;2.50;99.90;;;;;;5093715;28;20953;-83
2023/02/10 05:00:23;;;;;;;75.17;38.63;;;2.40;99.90;;;;;;5093422;28;20457;-83
2023/02/10 05:02:51;;;;;;;70.33;38.90;;;2.40;99.90;;;;;;5090658;28;20563;-84
2023/02/10 05:05:19;;;;;;;71.33;37.20;;;2.30;99.90;;;;;;5083095;28;20446;-84
2023/02/10 05:07:46;;;;;;;73.07;38.60;;;2.30;99.90;;;;;;5094898;28;20572;-81
2023/02/10 05:10:14;;;;;;;75.87;40.43;;;2.20;99.90;;;;;;5097157;28;20449;-81
2023/02/10 05:12:41;;;;;;;82.03;41.00;;;2.20;99.90;;;;;;5093229;28;20462;-82
2023/02/10 05:15:09;;;;;;;70.73;39.27;;;2.20;99.90;;;;;;5086911;28;20453;-81
2023/02/10 05:17:36;;;;;;;71.00;39.33;;;2.20;99.90;;;;;;5096744;28;20449;-79
2023/02/10 05:20:06;;;;;;;74.03;40.60;;;2.30;99.90;;;;;;5096979;28;20448;-81
2023/02/10 05:22:35;;;;;;;70.97;40.57;;;2.20;99.90;;;;;;5097160;28;20454;-82
2023/02/10 05:25:02;;;;;;;81.37;42.90;;;2.30;99.90;;;;;;5097108;28;20951;-82
2023/02/10 05:27:29;;;;;;;82.30;42.27;;;2.30;99.90;;;;;;5096891;28;20478;-79
2023/02/10 05:29:55;;;;;;;74.33;41.20;;;2.40;99.90;;;;;;5096689;28;20453;-81
2023/02/10 05:32:22;;;;;;;102.78;63.15;;;2.40;99.90;;;;;;5096332;28;20428;-80
2023/02/10 05:34:50;;;;;;;86.20;49.00;;;2.40;99.90;;;;;;5096964;28;20193;-80
2023/02/10 05:37:18;;;;;;;86.77;45.33;;;2.50;99.90;;;;;;5096796;28;20453;-82
2023/02/10 05:39:45;;;;;;;80.50;42.50;;;2.60;99.90;;;;;;5096791;28;20931;-82
2023/02/10 05:42:12;;;;;;;77.90;42.83;;;2.50;99.90;;;;;;5096161;28;20461;-80
2023/02/10 05:44:39;;;;;;;80.07;42.07;;;2.50;99.90;;;;;;5096226;28;20477;-80
2023/02/10 05:47:06;;;;;;;76.50;39.77;;;2.50;99.90;;;;;;5095984;28;20477;-82
2023/02/10 05:49:33;;;;;;;76.10;40.87;;;2.40;99.90;;;;;;5095895;28;20441;-80
2023/02/10 05:52:00;;;;;;;72.63;38.73;;;2.40;99.90;;;;;;5095895;28;20441;-79
2023/02/10 05:54:29;;;;;;;83.93;45.35;;;2.30;99.90;;;;;;5082281;28;20432;-81
2023/02/10 05:56:56;;;;;;;81.07;43.00;;;2.20;99.90;;;;;;5095802;28;20201;-82
2023/02/10 05:59:23;;;;;;;75.23;40.63;;;2.30;99.90;;;;;;5096048;28;20452;-82
2023/02/10 06:01:50;;;;;;;84.00;42.03;;;2.30;99.90;;;;;;5095935;28;20453;-82
2023/02/10 06:04:17;;;;;;;83.23;43.13;;;2.10;99.90;;;;;;5082588;28;20450;-82
2023/02/10 06:06:44;;;;;;;84.73;43.87;;;2.10;99.90;;;;;;5095519;28;20445;-83
2023/02/10 06:09:11;;;;;;;79.50;43.13;;;2.00;99.90;;;;;;5095956;28;20450;-81
2023/02/10 06:11:39;;;;;;;83.30;43.20;;;2.00;99.90;;;;;;5095760;28;20446;-83
2023/02/10 06:14:06;;;;;;;81.07;42.50;;;2.00;99.90;;;;;;5081867;28;20949;-80
2023/02/10 06:16:32;;;;;;;86.63;44.30;;;1.90;99.90;;;;;;5095610;28;20454;-80
2023/02/10 06:18:59;;;;;;;74.80;42.40;;;1.90;99.90;;;;;;5092985;28;20474;-82
2023/02/10 06:21:26;;;;;;;75.23;42.57;;;1.80;99.90;;;;;;5084355;28;20528;-80
2023/02/10 06:23:53;;;;;;;74.50;41.57;;;1.90;99.90;;;;;;5095523;28;20998;-82
2023/02/10 06:26:20;;;;;;;78.40;43.10;;;1.90;99.90;;;;;;5095068;28;20450;-79
2023/02/10 06:28:48;;;;;;;83.93;44.63;;;2.00;99.90;;;;;;5090199;28;20487;-81
2023/02/10 06:31:16;;;;;;;77.27;43.93;;;2.00;99.90;;;;;;5086893;28;20445;-80
2023/02/10 06:33:43;;;;;;;79.53;43.77;;;2.00;99.90;;;;;;5095102;28;20450;-79
2023/02/10 06:36:10;;;;;;;81.30;44.20;;;2.10;99.90;;;;;;5095097;28;20823;-81
2023/02/10 06:38:38;;;;;;;81.00;44.07;;;2.10;99.90;;;;;;5094611;28;20450;-83
2023/02/10 06:41:05;;;;;;;83.73;43.77;;;2.00;99.90;;;;;;5095140;28;20450;-80
2023/02/10 06:43:32;;;;;;;83.17;45.23;;;2.00;99.90;;;;;;5094665;28;20441;-82
2023/02/10 06:46:01;;;;;;;81.20;44.83;;;2.00;99.90;;;;;;5093436;28;20525;-80
2023/02/10 06:48:28;;;;;;;83.57;44.57;;;2.00;99.90;;;;;;5093626;28;20477;-79
2023/02/10 06:50:55;;;;;;;81.37;45.93;;;2.10;99.90;;;;;;5094118;28;20794;-80
2023/02/10 06:53:22;;;;;;;86.43;47.27;;;2.00;99.90;;;;;;5094711;28;20441;-80
2023/02/10 06:55:49;;;;;;;86.83;47.23;;;2.10;99.90;;;;;;5093919;28;20450;-84
2023/02/10 06:58:16;;;;;;;93.53;46.93;;;2.10;99.90;;;;;;5094203;28;20909;-84
2023/02/10 07:00:43;;;;;;;89.47;46.60;;;2.10;99.90;;;;;;5094526;28;20449;-82
2023/02/10 07:03:13;;;;;;;84.43;46.00;;;2.10;99.90;;;;;;5094199;28;21219;-81
2023/02/10 07:05:40;;;;;;;84.03;47.87;;;2.10;99.90;;;;;;5094580;28;20445;-83
2023/02/10 07:08:07;;;;;;;80.73;46.63;;;2.10;99.90;;;;;;5093753;28;20521;-82
2023/02/10 07:10:34;;;;;;;85.97;46.20;;;2.10;99.90;;;;;;5094321;28;20815;-80
2023/02/10 07:13:01;;;;;;;86.70;47.77;;;2.20;99.90;;;;;;5094040;28;20457;-78
2023/02/10 07:15:28;;;;;;;76.93;44.67;;;2.10;99.90;;;;;;5094342;28;20452;-82
2023/02/10 07:17:55;;;;;;;90.63;46.33;;;2.10;99.90;;;;;;5094131;28;20464;-82
2023/02/10 07:20:23;;;;;;;84.77;45.27;;;2.00;99.90;;;;;;5094500;28;20442;-82
2023/02/10 07:22:51;;;;;;;91.40;48.87;;;2.00;99.90;;;;;;5094329;28;20430;-83
2023/02/10 07:25:18;;;;;;;83.93;45.57;;;2.00;99.90;;;;;;5094088;28;20454;-81
2023/02/10 07:27:45;;;;;;;111.93;70.55;;;2.00;99.90;;;;;;5090235;28;20814;-81
2023/02/10 07:30:13;;;;;;;96.47;52.37;;;2.20;99.90;;;;;;5087104;28;20202;-83
2023/02/10 07:32:41;;;;;;;91.70;49.10;;;2.30;99.90;;;;;;5091240;28;20442;-81
2023/02/10 07:35:08;;;;;;;95.33;48.20;;;2.30;99.90;;;;;;5091590;28;20816;-82
2023/02/10 07:37:37;;;;;;;91.40;47.63;;;2.20;99.90;;;;;;5093415;28;20442;-81
2023/02/10 07:40:05;;;;;;;83.80;46.53;;;2.20;99.90;;;;;;5089349;28;20457;-83
2023/02/10 07:42:34;;;;;;;93.63;47.37;;;2.30;99.90;;;;;;5093739;28;20444;-80
2023/02/10 07:45:01;;;;;;;98.93;48.97;;;2.30;99.90;;;;;;5094420;28;20532;-79
2023/02/10 07:47:28;;;;;;;106.60;51.77;;;2.50;99.90;;;;;;5094297;28;22772;-81
2023/02/10 07:49:54;;;;;;;118.40;54.57;;;2.50;99.90;;;;;;5094528;28;20449;-79
2023/02/10 07:52:21;;;;;;;130.33;54.87;;;2.70;99.90;;;;;;5094067;28;20941;-81
2023/02/10 07:54:50;;;;;;;153.33;53.20;;;2.80;99.90;;;;;;5082935;28;20442;-82
2023/02/10 07:57:18;;;;;;;174.83;54.50;;;2.80;99.90;;;;;;5091458;28;20436;-81
2023/02/10 07:59:44;;;;;;;188.60;56.30;;;2.80;99.90;;;;;;5094613;28;20445;-80
2023/02/10 08:02:12;;;;;;;203.33;57.10;;;3.00;99.90;;;;;;5093920;28;20448;-82
2023/02/10 08:04:38;;;;;;;187.57;56.10;;;3.00;99.90;;;;;;5093359;28;20445;-83
2023/02/10 08:07:05;;;;;;;217.23;57.30;;;3.10;99.90;;;;;;5092843;28;20608;-79
2023/02/10 08:09:32;;;;;;;227.30;55.83;;;3.10;99.90;;;;;;5094063;28;20493;-81
2023/02/10 08:12:00;;;;;;;292.20;60.13;;;3.10;99.90;;;;;;5094020;28;20449;-79
2023/02/10 08:14:27;;;;;;;300.23;60.13;;;3.20;99.90;;;;;;5093718;28;20452;-81
2023/02/10 08:16:54;;;;;;;299.10;61.20;;;3.30;99.90;;;;;;5095750;28;20437;-78
2023/02/10 08:19:23;;;;;;;310.33;61.50;;;3.30;99.90;;;;;;5096196;28;20473;-80
2023/02/10 08:21:49;;;;;;;277.27;58.60;;;3.40;99.90;;;;;;5094612;28;20532;-79
2023/02/10 08:24:16;;;;;;;318.58;64.50;;;3.40;99.90;;;;;;5099234;28;20489;-80
2023/02/10 08:26:43;;;;;;;239.20;58.93;;;3.50;99.90;;;;;;5099049;28;20215;-82
2023/02/10 08:29:12;;;;;;;279.07;62.13;;;3.50;99.90;;;;;;5095681;28;20481;-81
2023/02/10 08:31:40;;;;;;;311.40;64.23;;;3.40;99.90;;;;;;5094314;28;20438;-82
2023/02/10 08:34:15;;;;;;;327.50;62.97;;;3.50;99.90;;;;;;5096051;28;20452;-82
2023/02/10 08:39:22;;;;;;;246.20;61.20;;;3.50;99.90;;;;;;5096293;28;20464;-82
2023/02/10 08:41:49;;;;;;;273.17;64.13;;;3.60;99.90;;;;;;5098607;28;20481;-82
2023/02/10 08:44:17;;;;;;;212.07;60.97;;;3.70;99.90;;;;;;5099705;28;20445;-81
2023/02/10 08:46:44;;;;;;;223.77;61.20;;;3.80;99.90;;;;;;5100137;28;20446;-80
2023/02/10 08:49:11;;;;;;;205.03;58.63;;;3.80;99.90;;;;;;5100683;28;20532;-83
2023/02/10 08:51:39;;;;;;;191.73;63.70;;;3.90;99.90;;;;;;5102040;28;20805;-83
2023/02/10 08:54:07;;;;;;;391.55;105.28;;;3.90;99.90;;;;;;5101042;28;20437;-83
2023/02/10 08:56:33;;;;;;;252.07;70.13;;;4.00;99.90;;;;;;5101655;28;20227;-82
2023/02/10 08:59:00;;;;;;;181.03;65.47;;;4.10;99.90;;;;;;5098980;28;20442;-82
2023/02/10 09:01:28;;;;;;;174.27;62.63;;;4.20;99.90;;;;;;5099552;28;20921;-83
2023/02/10 09:03:56;;;;;;;177.43;64.13;;;4.20;99.90;;;;;;5099110;28;20484;-82
2023/02/10 09:06:26;;;;;;;172.27;62.00;;;4.30;99.90;;;;;;5098602;28;20445;-80
2023/02/10 09:08:53;;;;;;;164.13;59.93;;;4.50;99.90;;;;;;5100580;28;20511;-79
2023/02/10 09:11:22;;;;;;;151.40;60.23;;;4.30;99.90;;;;;;5101343;28;20449;-80
2023/02/10 09:13:49;;;;;;;184.87;61.73;;;4.30;99.90;;;;;;5100309;28;20484;-81
2023/02/10 09:16:16;;;;;;;153.37;61.30;;;4.40;99.90;;;;;;5098485;28;20452;-80
2023/02/10 09:18:44;;;;;;;152.20;60.13;;;4.40;99.90;;;;;;5098694;28;20466;-81
2023/02/10 09:21:12;;;;;;;162.87;61.23;;;4.30;99.90;;;;;;5100175;28;20929;-81
2023/02/10 09:23:39;;;;;;;328.15;102.70;;;4.40;99.90;;;;;;5097512;28;20491;-81
2023/02/10 09:26:06;;;;;;;190.53;67.20;;;4.60;99.90;;;;;;5098622;28;20205;-80
2023/02/10 09:28:33;;;;;;;161.40;65.50;;;4.70;99.90;;;;;;5097215;28;20647;-78
2023/02/10 09:31:00;;;;;;;165.40;62.57;;;4.70;99.90;;;;;;5097229;28;20204;-81
2023/02/10 09:33:28;;;;;;;141.27;58.90;;;4.80;99.90;;;;;;5097143;28;20465;-79
2023/02/10 09:35:56;;;;;;;152.27;59.90;;;4.90;99.90;;;;;;5096242;28;20465;-81
2023/02/10 09:38:23;;;;;;;144.00;58.50;;;4.90;99.90;;;;;;5098405;28;20209;-78
2023/02/10 09:41:00;;;;;;;130.67;55.00;;;4.90;99.90;;;;;;5086671;28;20213;-84
2023/02/10 09:43:53;;;;;;;134.90;56.00;;;4.90;99.90;;;;;;5097973;28;20193;-79
2023/02/10 09:46:29;;;;;;;143.57;54.17;;;4.90;99.90;;;;;;5098939;28;20224;-79
2023/02/10 09:49:05;;;;;;;130.83;56.30;;;4.90;99.90;;;;;;5097702;28;20232;-80
2023/02/10 09:51:43;;;;;;;148.98;68.20;;;5.10;99.90;;;;;;5098008;28;20426;-79
2023/02/10 09:54:13;;;;;;;130.30;57.93;;;5.10;99.90;;;;;;5099527;28;20211;-80
2023/02/10 09:56:40;;;;;;;133.03;56.90;;;5.30;99.90;;;;;;5099733;28;20198;-81
2023/02/10 09:59:15;;;;;;;133.97;55.80;;;5.40;99.90;;;;;;5086494;28;20560;-80
2023/02/10 10:01:46;;;;;;;118.20;54.70;;;5.40;99.90;;;;;;5097200;28;20201;-81
2023/02/10 10:04:16;;;;;;;121.87;54.60;;;5.40;99.90;;;;;;5100168;28;20197;-80
2023/02/10 10:06:52;;;;;;;128.87;52.97;;;5.50;99.90;;;;;;5098410;28;20193;-79
2023/02/10 10:09:28;;;;;;;119.03;52.30;;;5.60;99.90;;;;;;5097857;28;20251;-81
2023/02/10 10:11:56;;;;;;;118.33;53.30;;;5.60;99.90;;;;;;5088822;28;20205;-79
2023/02/10 10:14:25;;;;;;;105.70;50.60;;;5.60;99.90;;;;;;5096470;28;20201;-80
2023/02/10 10:17:11;;;;;;;125.50;70.15;;;5.60;99.90;;;;;;5096278;28;20481;-79
2023/02/10 10:20:01;;;;;;;110.87;52.43;;;5.80;99.90;;;;;;5086805;28;20218;-79
2023/02/10 10:22:42;;;;;;;102.73;48.80;;;5.80;99.90;;;;;;5084896;28;20620;-76
2023/02/10 10:25:27;;;;;;;104.00;48.07;;;5.90;99.90;;;;;;5098532;28;20656;-79
2023/02/10 10:28:04;;;;;;;107.70;46.63;;;5.70;99.90;;;;;;5097557;28;20209;-83
2023/02/10 10:30:38;;;;;;;108.27;48.83;;;5.70;99.90;;;;;;5096946;28;20216;-80
2023/02/10 10:33:24;;;;;;;100.53;45.83;;;5.60;99.90;;;;;;5098147;28;20208;-81
2023/02/10 10:35:52;;;;;;;105.90;47.10;;;5.40;99.90;;;;;;5095453;28;20217;-81
2023/02/10 10:38:23;;;;;;;103.27;45.30;;;5.30;99.90;;;;;;5097223;28;20201;-80
2023/02/10 10:40:52;;;;;;;102.27;47.00;;;5.40;99.90;;;;;;5098391;28;20220;-80
2023/02/10 10:43:24;;;;;;;98.87;46.43;;;5.50;99.90;;;;;;5086580;28;20200;-80
2023/02/10 10:45:55;;;;;;;100.67;47.27;;;5.60;99.90;;;;;;5099872;28;20201;-80
2023/02/10 10:48:26;;;;;;;95.90;47.27;;;5.80;99.90;;;;;;5096447;28;20193;-80
2023/02/10 10:50:55;;;;;;;95.23;46.70;;;5.80;99.90;;;;;;5097246;28;20205;-82
2023/02/10 10:53:36;;;;;;;87.60;44.27;;;5.90;99.90;;;;;;5098653;28;20458;-80
2023/02/10 10:56:06;;;;;;;77.00;38.80;;;5.90;99.90;;;;;;5097896;28;20205;-79
2023/02/10 10:58:37;;;;;;;87.63;37.70;;;6.00;99.90;;;;;;5099367;28;20197;-82
2023/02/10 11:01:05;;;;;;;77.80;38.17;;;6.10;99.90;;;;;;5099075;28;20216;-78
2023/02/10 11:03:37;;;;;;;83.57;38.90;;;6.30;99.90;;;;;;5099172;28;20580;-78
2023/02/10 11:06:09;;;;;;;88.10;38.63;;;6.20;99.90;;;;;;5099929;28;20261;-80
2023/02/10 11:08:41;;;;;;;77.30;36.87;;;6.20;99.90;;;;;;5094534;28;20222;-78
2023/02/10 11:11:11;;;;;;;81.47;37.97;;;6.30;99.90;;;;;;5090001;28;20244;-78
2023/02/10 11:13:41;;;;;;;83.43;38.17;;;6.50;99.90;;;;;;5098061;28;20220;-80
2023/02/10 11:16:11;;;;;;;79.87;36.77;;;6.70;99.90;;;;;;5098475;28;20652;-80
2023/02/10 11:18:39;;;;;;;74.23;35.47;;;6.70;99.90;;;;;;5097758;28;20626;-82
2023/02/10 11:21:08;;;;;;;82.10;37.17;;;6.60;99.90;;;;;;5096810;28;20205;-81
2023/02/10 11:23:48;;;;;;;79.33;34.90;;;6.70;99.90;;;;;;5090528;28;20210;-80
2023/02/10 11:26:20;;;;;;;80.10;37.47;;;6.70;99.90;;;;;;5094151;28;20205;-78
2023/02/10 11:28:47;;;;;;;73.80;35.70;;;6.80;99.90;;;;;;5097819;28;20217;-80
2023/02/10 11:31:31;;;;;;;76.00;36.73;;;7.00;99.90;;;;;;5096497;28;20197;-82
2023/02/10 11:34:01;;;;;;;72.93;34.33;;;7.00;99.90;;;;;;5093748;28;20201;-78
2023/02/10 11:36:36;;;;;;;80.93;37.53;;;7.00;99.90;;;;;;5095025;28;20224;-78
2023/02/10 11:39:16;;;;;;;71.50;37.47;;;7.10;99.90;;;;;;5096161;28;20209;-79
2023/02/10 11:41:44;;;;;;;74.47;37.20;;;7.20;99.90;;;;;;5096340;28;20660;-79
2023/02/10 11:44:24;;;;;;;77.10;37.73;;;7.30;99.90;;;;;;5095877;28;20232;-79
2023/02/10 11:46:56;;;;;;;68.60;36.60;;;7.30;99.90;;;;;;5082029;28;20570;-76
2023/02/10 11:49:23;;;;;;;75.23;35.30;;;7.40;99.90;;;;;;5096197;28;20225;-82
2023/02/10 11:51:55;;;;;;;64.73;33.73;;;7.40;99.90;;;;;;5096495;28;20243;-78
2023/02/10 11:54:25;;;;;;;66.60;34.00;;;7.30;99.90;;;;;;5098719;28;20216;-80
2023/02/10 11:59:52;;;;;;;66.43;33.63;;;7.20;99.90;;;;;;5097222;28;20574;-79
2023/02/10 12:02:30;;;;;;;67.63;34.60;;;7.00;99.90;;;;;;5094217;28;20192;-82
2023/02/10 12:05:15;;;;;;;64.80;34.80;;;7.00;99.90;;;;;;5097494;28;20200;-80
2023/02/10 12:07:57;;;;;;;69.67;34.43;;;7.10;99.90;;;;;;5097085;28;20216;-79
2023/02/10 12:10:30;;;;;;;76.40;36.93;;;7.00;99.90;;;;;;5098424;28;20236;-82
2023/02/10 12:13:05;;;;;;;77.33;35.67;;;7.00;99.90;;;;;;5099253;28;20197;-78
2023/02/10 12:15:47;;;;;;;82.60;38.17;;;7.00;99.90;;;;;;5097704;28;20208;-81
2023/02/10 12:18:34;;;;;;;89.97;39.03;;;7.00;99.90;;;;;;5097318;28;20723;-80
2023/02/10 12:21:24;;;;;;;76.63;35.70;;;7.10;99.90;;;;;;5095220;28;20672;-80
2023/02/10 12:24:20;;;;;;;78.27;36.80;;;7.10;99.90;;;;;;5095766;28;20221;-80
2023/02/10 12:26:53;;;;;;;80.77;36.13;;;7.30;99.90;;;;;;5093449;28;20605;-76
2023/02/10 12:29:34;;;;;;;79.57;37.60;;;7.40;99.90;;;;;;5095308;28;20236;-78
2023/02/10 12:32:09;;;;;;;81.60;37.77;;;7.60;99.90;;;;;;5093137;28;20233;-76
2023/02/10 12:34:52;;;;;;;85.87;36.73;;;7.50;99.90;;;;;;5093843;28;20203;-77
2023/02/10 12:37:30;;;;;;;82.47;37.67;;;7.50;99.90;;;;;;5093897;28;20201;-78
2023/02/10 12:40:07;;;;;;;83.00;37.83;;;7.50;99.90;;;;;;5094111;28;20223;-78
2023/02/10 12:42:46;;;;;;;87.00;38.37;;;7.40;99.90;;;;;;5095486;28;20196;-76
2023/02/10 12:45:21;;;;;;;91.17;39.43;;;7.30;99.90;;;;;;5095771;28;20193;-78
2023/02/10 12:47:57;;;;;;;82.53;39.17;;;7.30;99.90;;;;;;5095212;28;20201;-76
2023/02/10 12:50:46;;;;;;;87.33;39.10;;;7.30;99.90;;;;;;5094841;28;20236;-78
2023/02/10 12:53:18;;;;;;;102.87;41.37;;;7.50;99.90;;;;;;5093132;28;20205;-81